Time;durP1;ratioP1;P1;durP2;ratioP2;P2;SDS_P1;SDS_P2;PMS_P1;PMS_P2;Temp;Humidity;BMP_temperature;BMP_pressure;BME280_temperature;BME280_humidity;BME280_pressure;Samples;Min_cycle;Max_cycle;Signal;HPM_P1;HPM_P2
2023/07/09 00:00:18;;;;;;;13.80;7.30;;;23.80;69.50;;;;;;5070891;28;20048;-88
2023/07/09 00:02:44;;;;;;;12.73;7.32;;;23.80;69.70;;;;;;5071479;28;20043;-88
2023/07/09 00:05:15;;;;;;;11.38;6.93;;;23.80;70.00;;;;;;5071988;28;20045;-88
2023/07/09 00:07:41;;;;;;;12.75;7.25;;;23.70;70.10;;;;;;5071868;28;20589;-88
2023/07/09 00:10:15;;;;;;;11.15;7.25;;;23.70;70.20;;;;;;5071781;28;20055;-88
2023/07/09 00:12:41;;;;;;;10.32;6.68;;;23.70;70.40;;;;;;5072115;28;20037;-88
2023/07/09 00:15:09;;;;;;;11.50;7.47;;;23.60;70.60;;;;;;5071348;28;20032;-88
2023/07/09 00:17:35;;;;;;;9.93;6.70;;;23.60;70.90;;;;;;5070870;28;20076;-87
2023/07/09 00:20:04;;;;;;;12.93;7.05;;;23.50;71.20;;;;;;5070492;28;20083;-87
2023/07/09 00:22:31;;;;;;;11.90;7.45;;;23.50;71.40;;;;;;5071731;28;20132;-87
2023/07/09 00:24:56;;;;;;;12.48;7.18;;;23.50;71.20;;;;;;5071950;28;20123;-87
2023/07/09 00:27:25;;;;;;;12.23;7.25;;;23.50;71.30;;;;;;5072099;28;20115;-87
2023/07/09 00:29:52;;;;;;;11.70;7.45;;;23.40;71.30;;;;;;5071047;28;20131;-87
2023/07/09 00:32:24;;;;;;;10.60;6.50;;;23.40;71.40;;;;;;5071988;28;20520;-87
2023/07/09 00:34:51;;;;;;;;;;;23.40;71.70;;;;;;5072223;28;20098;-87
2023/07/09 00:37:19;;;;;;;12.90;7.20;;;23.30;72.10;;;;;;5071837;28;20384;-87
2023/07/09 00:39:48;;;;;;;11.73;7.43;;;23.30;72.60;;;;;;5070833;28;20083;-87
2023/07/09 00:42:17;;;;;;;10.68;7.30;;;23.30;72.70;;;;;;5071776;28;20087;-87
2023/07/09 00:44:55;;;;;;;11.52;7.18;;;23.30;72.80;;;;;;5071582;28;20437;-87
2023/07/09 00:47:36;;;;;;;10.95;6.63;;;23.30;73.00;;;;;;5071845;28;20043;-87
2023/07/09 00:50:27;;;;;;;11.45;7.63;;;23.20;73.20;;;;;;5071040;28;20050;-87
2023/07/09 00:53:02;;;;;;;10.68;7.05;;;23.20;73.40;;;;;;5071882;28;20052;-87
2023/07/09 00:55:32;;;;;;;11.40;7.07;;;23.10;73.50;;;;;;5071946;28;20040;-87
2023/07/09 00:58:01;;;;;;;12.50;7.32;;;23.10;73.60;;;;;;5071372;28;20052;-87
2023/07/09 01:00:35;;;;;;;10.98;7.05;;;23.10;73.70;;;;;;5070753;28;20619;-87
2023/07/09 01:03:04;;;;;;;11.38;6.95;;;23.10;73.80;;;;;;5071224;28;20494;-87
2023/07/09 01:05:30;;;;;;;12.02;7.40;;;23.00;73.70;;;;;;5071661;28;20083;-87
2023/07/09 01:07:58;;;;;;;11.63;6.90;;;23.00;73.80;;;;;;5071676;28;20051;-88
2023/07/09 01:10:24;;;;;;;11.40;7.20;;;23.00;74.00;;;;;;5070874;28;20080;-87
2023/07/09 01:12:50;;;;;;;11.10;7.38;;;22.90;74.80;;;;;;5071255;28;20048;-87
2023/07/09 01:15:16;;;;;;;11.75;7.07;;;22.90;74.00;;;;;;5071452;28;20041;-87
2023/07/09 01:17:44;;;;;;;11.18;7.20;;;22.90;74.30;;;;;;5070949;28;20116;-87
2023/07/09 01:20:16;;;;;;;11.73;6.85;;;22.80;74.50;;;;;;5070594;28;20136;-87
2023/07/09 01:22:42;;;;;;;12.27;7.05;;;22.80;74.60;;;;;;5071534;28;20131;-87
2023/07/09 01:25:09;;;;;;;11.52;7.13;;;22.70;74.90;;;;;;5071050;28;20670;-87
2023/07/09 01:27:38;;;;;;;9.90;6.93;;;22.70;74.90;;;;;;5071220;28;20474;-87
2023/07/09 01:30:26;;;;;;;11.40;7.22;;;22.60;75.10;;;;;;5070219;28;20169;-87
2023/07/09 01:32:55;;;;;;;12.45;7.55;;;22.60;75.30;;;;;;5071452;28;20083;-87
2023/07/09 01:35:21;;;;;;;10.70;7.20;;;22.50;75.30;;;;;;5071181;28;20510;-87
2023/07/09 01:37:47;;;;;;;13.20;7.60;;;22.50;75.70;;;;;;5071195;28;20029;-87
2023/07/09 01:40:15;;;;;;;11.20;7.57;;;22.50;75.80;;;;;;5070320;28;20037;-87
2023/07/09 01:42:42;;;;;;;12.60;7.47;;;22.50;76.20;;;;;;5070578;28;20071;-87
2023/07/09 01:45:10;;;;;;;11.20;8.00;;;22.40;76.30;;;;;;5070848;28;20040;-87
2023/07/09 01:47:37;;;;;;;12.43;7.70;;;22.40;76.60;;;;;;5071006;28;20037;-87
2023/07/09 01:50:04;;;;;;;11.52;7.18;;;22.40;76.80;;;;;;5070450;28;20466;-87
2023/07/09 01:52:32;;;;;;;13.32;7.70;;;22.30;76.90;;;;;;5071015;28;20413;-87
2023/07/09 01:54:58;;;;;;;10.68;7.88;;;22.30;77.20;;;;;;5069792;28;20123;-87
2023/07/09 01:57:32;;;;;;;11.93;8.40;;;22.30;77.70;;;;;;5074158;28;20130;-87
2023/07/09 02:00:00;;;;;;;10.88;7.70;;;22.30;78.30;;;;;;5073781;28;20420;-87
2023/07/09 02:02:26;;;;;;;11.75;8.00;;;22.30;78.60;;;;;;5074454;28;20045;-86
2023/07/09 02:04:54;;;;;;;12.95;7.72;;;22.20;78.70;;;;;;5074378;28;20398;-87
2023/07/09 02:07:21;;;;;;;11.98;8.00;;;22.20;79.00;;;;;;5074692;28;20472;-87
2023/07/09 02:09:47;;;;;;;11.15;8.00;;;22.20;79.40;;;;;;5072429;28;20109;-87
2023/07/09 02:12:14;;;;;;;11.75;7.57;;;22.10;79.60;;;;;;5074991;28;20052;-87
2023/07/09 02:14:41;;;;;;;11.52;7.72;;;22.10;80.00;;;;;;5074260;28;20109;-87
2023/07/09 02:17:08;;;;;;;12.10;7.53;;;22.00;80.10;;;;;;5074333;28;20055;-87
2023/07/09 02:19:33;;;;;;;12.10;8.00;;;22.00;80.40;;;;;;5073103;28;20041;-87
2023/07/09 02:21:59;;;;;;;10.60;7.50;;;22.00;80.50;;;;;;5074355;28;20064;-86
2023/07/09 02:24:26;;;;;;;13.90;8.32;;;21.90;80.70;;;;;;5073677;28;20075;-86
2023/07/09 02:26:55;;;;;;;11.48;7.90;;;22.00;81.00;;;;;;5073856;28;20086;-86
2023/07/09 02:29:22;;;;;;;11.10;7.40;;;21.90;81.30;;;;;;5074204;28;20040;-87
2023/07/09 02:31:50;;;;;;;11.52;7.93;;;21.90;81.50;;;;;;5073418;28;20041;-87
2023/07/09 02:34:16;;;;;;;14.10;8.70;;;21.80;82.00;;;;;;5074217;28;20044;-86
2023/07/09 02:36:42;;;;;;;11.32;8.25;;;21.80;82.90;;;;;;5073739;28;20115;-87
2023/07/09 02:39:13;;;;;;;13.52;8.32;;;21.70;83.50;;;;;;5073643;28;20044;-86
2023/07/09 02:41:41;;;;;;;14.93;8.35;;;21.70;83.80;;;;;;5072911;28;20032;-87
2023/07/09 02:44:08;;;;;;;10.63;8.02;;;21.70;84.10;;;;;;5073846;28;20103;-86
2023/07/09 02:46:34;;;;;;;10.48;7.47;;;21.60;84.10;;;;;;5073720;28;20032;-87
2023/07/09 02:49:00;;;;;;;11.50;7.75;;;21.60;84.50;;;;;;5073775;28;20433;-86
2023/07/09 02:51:26;;;;;;;12.60;8.18;;;21.60;84.60;;;;;;5072842;28;20036;-86
2023/07/09 02:53:56;;;;;;;12.73;7.85;;;21.60;84.40;;;;;;5073802;28;20047;-87
2023/07/09 02:56:22;;;;;;;11.98;7.88;;;21.60;84.20;;;;;;5073990;28;20040;-86
2023/07/09 02:58:48;;;;;;;12.77;8.15;;;21.50;84.60;;;;;;5073516;28;20045;-86
2023/07/09 03:01:14;;;;;;;11.52;7.55;;;21.50;85.20;;;;;;5072668;28;20083;-86
2023/07/09 03:03:40;;;;;;;11.57;7.82;;;21.50;85.20;;;;;;5072951;28;20044;-87
2023/07/09 03:06:06;;;;;;;14.25;7.78;;;21.50;85.20;;;;;;5073421;28;20048;-87
2023/07/09 03:08:32;;;;;;;11.32;7.90;;;21.50;85.10;;;;;;5072331;28;20047;-87
2023/07/09 03:10:57;;;;;;;11.43;7.40;;;21.50;85.30;;;;;;5072663;28;20033;-86
2023/07/09 03:13:23;;;;;;;12.50;7.88;;;21.50;85.80;;;;;;5073290;28;20115;-87
2023/07/09 03:15:56;;;;;;;11.02;7.10;;;21.50;86.10;;;;;;5072119;28;20091;-86
2023/07/09 03:18:22;;;;;;;11.40;7.57;;;21.40;86.00;;;;;;5072117;28;20044;-86
2023/07/09 03:20:47;;;;;;;12.20;7.93;;;21.40;86.50;;;;;;5071449;28;20107;-87
2023/07/09 03:23:13;;;;;;;13.27;8.63;;;21.40;86.70;;;;;;5071781;28;20037;-86
2023/07/09 03:25:42;;;;;;;12.00;7.95;;;21.30;87.20;;;;;;5072554;28;20115;-86
2023/07/09 03:28:08;;;;;;;13.80;8.30;;;21.30;87.30;;;;;;5072523;28;20044;-87
2023/07/09 03:30:34;;;;;;;13.20;8.93;;;21.30;87.90;;;;;;5071576;28;20402;-87
2023/07/09 03:33:00;;;;;;;11.27;7.90;;;21.30;88.20;;;;;;5071977;28;20124;-87
2023/07/09 03:35:26;;;;;;;12.50;8.18;;;21.30;88.40;;;;;;5072050;28;20047;-86
2023/07/09 03:37:51;;;;;;;12.65;8.50;;;21.30;89.60;;;;;;5072314;28;20051;-86
2023/07/09 03:40:22;;;;;;;12.88;8.70;;;21.30;90.10;;;;;;5071183;28;20041;-86
2023/07/09 03:42:48;;;;;;;12.50;8.63;;;21.30;90.30;;;;;;5072386;28;20094;-86
2023/07/09 03:45:14;;;;;;;11.55;7.90;;;21.30;90.50;;;;;;5072632;28;20040;-87
2023/07/09 03:47:39;;;;;;;12.68;8.60;;;21.30;90.50;;;;;;5072119;28;20043;-87
2023/07/09 03:50:08;;;;;;;11.60;7.90;;;21.20;90.50;;;;;;5072007;28;20036;-87
2023/07/09 03:52:34;;;;;;;11.65;8.20;;;21.20;90.40;;;;;;5072412;28;20494;-87
2023/07/09 03:55:00;;;;;;;14.63;8.15;;;21.30;90.50;;;;;;5072226;28;20048;-87
2023/07/09 03:57:27;;;;;;;10.95;8.23;;;21.20;90.70;;;;;;5071716;28;20490;-86
2023/07/09 03:59:52;;;;;;;13.45;8.23;;;21.20;91.00;;;;;;5070675;28;20064;-87
2023/07/09 04:02:18;;;;;;;12.85;8.60;;;21.30;90.90;;;;;;5071759;28;20698;-86
2023/07/09 04:04:44;;;;;;;11.15;8.32;;;21.30;91.10;;;;;;5071736;28;20033;-86
2023/07/09 04:07:09;;;;;;;13.38;8.23;;;21.30;91.60;;;;;;5070170;28;20051;-86
2023/07/09 04:09:35;;;;;;;11.48;8.02;;;21.20;91.50;;;;;;5070554;28;20043;-86
2023/07/09 04:12:01;;;;;;;12.98;7.88;;;21.30;91.50;;;;;;5071530;28;20044;-86
2023/07/09 04:14:27;;;;;;;14.65;7.82;;;21.30;91.30;;;;;;5070903;28;20037;-86
2023/07/09 04:16:53;;;;;;;13.02;8.02;;;21.30;91.30;;;;;;5071367;28;20041;-87
2023/07/09 04:19:18;;;;;;;11.18;7.75;;;21.30;91.80;;;;;;5071383;28;20124;-87
2023/07/09 04:21:44;;;;;;;11.07;7.93;;;21.30;92.20;;;;;;5070220;28;20047;-86
2023/07/09 04:24:10;;;;;;;12.70;8.77;;;21.40;91.70;;;;;;5070970;28;20044;-86
2023/07/09 04:26:38;;;;;;;13.15;8.75;;;21.40;91.90;;;;;;5066508;28;20068;-86
2023/07/09 04:29:05;;;;;;;11.35;8.55;;;21.40;92.60;;;;;;5051576;28;20088;-86
2023/07/09 04:31:30;;;;;;;12.77;8.45;;;21.40;92.90;;;;;;5050771;28;20053;-87
2023/07/09 04:33:56;;;;;;;11.77;8.27;;;21.50;92.90;;;;;;5051122;28;20047;-86
2023/07/09 04:36:22;;;;;;;13.60;9.25;;;21.50;93.10;;;;;;5051257;28;20048;-86
2023/07/09 04:38:47;;;;;;;13.32;8.35;;;21.50;93.10;;;;;;5050864;28;20123;-87
2023/07/09 04:41:13;;;;;;;10.80;8.02;;;21.50;93.20;;;;;;5050274;28;20036;-87
2023/07/09 04:43:38;;;;;;;12.73;8.50;;;21.50;93.60;;;;;;5048980;28;20041;-86
2023/07/09 04:46:04;;;;;;;11.02;8.07;;;21.50;93.50;;;;;;5051545;28;20457;-87
2023/07/09 04:48:30;;;;;;;11.38;8.00;;;21.60;93.80;;;;;;5051240;28;20044;-87
2023/07/09 04:50:55;;;;;;;10.98;8.18;;;21.60;93.90;;;;;;5050646;28;20036;-86
2023/07/09 04:53:23;;;;;;;13.40;8.77;;;21.60;94.40;;;;;;5051287;28;20116;-87
2023/07/09 04:55:49;;;;;;;13.93;8.43;;;21.60;94.40;;;;;;5049712;28;20041;-86
2023/07/09 04:58:15;;;;;;;11.98;8.00;;;21.70;94.70;;;;;;5051203;28;20041;-87
2023/07/09 05:00:42;;;;;;;13.52;8.48;;;21.70;94.30;;;;;;5050142;28;20124;-87
2023/07/09 05:03:08;;;;;;;11.63;8.07;;;21.80;93.90;;;;;;5051324;28;20041;-86
2023/07/09 05:05:33;;;;;;;12.38;7.88;;;21.80;93.70;;;;;;5051392;28;20044;-86
2023/07/09 05:07:59;;;;;;;12.18;7.93;;;21.90;94.50;;;;;;5051374;28;20033;-87
2023/07/09 05:10:25;;;;;;;12.18;7.95;;;21.90;94.90;;;;;;5050121;28;20049;-86
2023/07/09 05:12:52;;;;;;;11.23;7.97;;;22.00;95.20;;;;;;5050800;28;20120;-86
2023/07/09 05:15:19;;;;;;;11.30;8.23;;;22.00;95.90;;;;;;5050209;28;20410;-86
2023/07/09 05:17:46;;;;;;;13.35;8.63;;;22.10;96.40;;;;;;5050610;28;20044;-86
2023/07/09 05:20:13;;;;;;;12.60;8.55;;;22.20;95.90;;;;;;5050154;28;20037;-86
2023/07/09 05:22:39;;;;;;;13.32;9.13;;;22.20;95.70;;;;;;5050429;28;20520;-86
2023/07/09 05:25:05;;;;;;;15.88;8.20;;;22.30;94.60;;;;;;5050623;28;20044;-86
2023/07/09 05:27:31;;;;;;;12.57;9.48;;;22.30;94.40;;;;;;5050049;28;20037;-86
2023/07/09 05:29:56;;;;;;;12.27;8.70;;;22.40;94.30;;;;;;5058036;28;20056;-86
2023/07/09 05:32:22;;;;;;;13.40;8.85;;;22.50;94.30;;;;;;5062978;28;20454;-86
2023/07/09 05:34:47;;;;;;;12.30;9.38;;;22.50;95.00;;;;;;5064407;28;20102;-86
2023/07/09 05:37:13;;;;;;;13.75;9.63;;;22.50;95.60;;;;;;5062107;28;20406;-86
2023/07/09 05:39:39;;;;;;;12.20;8.70;;;22.60;95.60;;;;;;5062773;28;20040;-86
2023/07/09 05:42:05;;;;;;;13.00;9.05;;;22.60;95.70;;;;;;5063698;28;20487;-87
2023/07/09 05:44:30;;;;;;;12.23;8.73;;;22.70;96.20;;;;;;5061419;28;20259;-86
2023/07/09 05:46:56;;;;;;;12.07;8.82;;;22.70;96.50;;;;;;5063887;28;20037;-87
2023/07/09 05:49:22;;;;;;;12.75;9.00;;;22.70;96.50;;;;;;5062878;28;20439;-86
2023/07/09 05:51:47;;;;;;;13.20;8.68;;;22.80;97.30;;;;;;5061412;28;20044;-87
2023/07/09 05:54:13;;;;;;;12.38;8.75;;;22.80;98.10;;;;;;5063640;28;20036;-87
2023/07/09 05:56:39;;;;;;;13.45;8.65;;;22.80;99.20;;;;;;5059412;28;20040;-86
2023/07/09 05:59:04;;;;;;;12.30;8.82;;;22.90;99.70;;;;;;5063059;28;20612;-87
2023/07/09 06:01:30;;;;;;;13.13;9.23;;;22.90;99.20;;;;;;5063758;28;20032;-87
2023/07/09 06:03:56;;;;;;;13.30;9.90;;;23.00;99.90;;;;;;5073917;28;20498;-87
2023/07/09 06:06:22;;;;;;;15.25;9.30;;;23.00;99.90;;;;;;5074369;28;20051;-87
2023/07/09 06:08:50;;;;;;;11.68;9.32;;;23.10;99.90;;;;;;5074673;28;20036;-86
2023/07/09 06:11:17;;;;;;;12.95;9.73;;;23.10;99.90;;;;;;5073658;28;20051;-86
2023/07/09 06:13:43;;;;;;;15.10;10.23;;;23.20;99.90;;;;;;5073989;28;20044;-86
2023/07/09 06:16:08;;;;;;;13.80;10.57;;;23.20;99.70;;;;;;5074539;28;20045;-87
2023/07/09 06:18:34;;;;;;;14.70;10.48;;;23.20;99.90;;;;;;5074053;28;20050;-87
2023/07/09 06:21:01;;;;;;;12.77;10.05;;;23.30;99.60;;;;;;5070295;28;20041;-87
2023/07/09 06:23:28;;;;;;;13.75;9.82;;;23.30;99.90;;;;;;5064989;28;20028;-87
2023/07/09 06:25:53;;;;;;;15.13;10.40;;;23.40;99.80;;;;;;5074046;28;20051;-86
2023/07/09 06:28:22;;;;;;;14.32;11.20;;;23.40;99.60;;;;;;5074232;28;20028;-87
2023/07/09 06:30:48;;;;;;;15.40;11.07;;;23.50;99.70;;;;;;5073360;28;20036;-87
2023/07/09 06:33:15;;;;;;;14.20;10.48;;;23.50;99.90;;;;;;5073961;28;20089;-87
2023/07/09 06:35:51;;;;;;;14.00;10.52;;;23.60;99.60;;;;;;5074151;28;20068;-87
2023/07/09 06:38:18;;;;;;;14.23;9.88;;;23.70;99.90;;;;;;5074163;28;20083;-87
2023/07/09 06:40:44;;;;;;;14.88;10.15;;;23.70;99.90;;;;;;5072850;28;20710;-87
2023/07/09 06:43:10;;;;;;;14.05;9.75;;;23.80;99.90;;;;;;5072966;28;20036;-87
2023/07/09 06:45:37;;;;;;;12.90;9.43;;;23.90;99.90;;;;;;5073190;28;20502;-87
2023/07/09 06:48:03;;;;;;;13.52;10.05;;;23.90;99.90;;;;;;5073724;28;20047;-87
2023/07/09 06:50:32;;;;;;;13.88;9.10;;;24.00;99.90;;;;;;5073205;28;20047;-87
2023/07/09 06:52:58;;;;;;;14.18;9.40;;;24.10;98.60;;;;;;5073814;28;20048;-87
2023/07/09 06:55:23;;;;;;;15.02;9.77;;;24.10;97.70;;;;;;5073661;28;20040;-87
2023/07/09 06:57:49;;;;;;;20.25;9.95;;;24.20;98.10;;;;;;5072173;28;20044;-87
2023/07/09 07:00:15;;;;;;;20.17;10.48;;;24.30;98.60;;;;;;5072395;28;20050;-87
2023/07/09 07:02:40;;;;;;;12.35;9.32;;;24.40;99.50;;;;;;5073793;28;20044;-87
2023/07/09 07:05:06;;;;;;;14.63;9.40;;;24.50;98.20;;;;;;5073575;28;20037;-87
2023/07/09 07:07:32;;;;;;;15.13;9.85;;;24.50;97.60;;;;;;5073365;28;20043;-88
2023/07/09 07:09:58;;;;;;;15.30;9.90;;;24.60;97.20;;;;;;5072539;28;20048;-87
2023/07/09 07:12:28;;;;;;;15.48;9.18;;;24.70;97.20;;;;;;5072127;28;20493;-88
2023/07/09 07:14:55;;;;;;;13.38;9.35;;;24.70;97.30;;;;;;5073217;28;20084;-88
2023/07/09 07:17:21;;;;;;;14.20;9.88;;;24.80;97.90;;;;;;5073540;28;20042;-88
2023/07/09 07:19:47;;;;;;;14.45;9.07;;;24.90;97.40;;;;;;5072505;28;20324;-88
2023/07/09 07:22:13;;;;;;;15.35;9.88;;;25.00;97.00;;;;;;5072899;28;20567;-88
2023/07/09 07:24:39;;;;;;;14.50;9.90;;;25.10;95.70;;;;;;5063283;28;20102;-88
2023/07/09 07:27:05;;;;;;;13.35;9.35;;;25.20;96.10;;;;;;5060788;28;20041;-88
2023/07/09 07:29:30;;;;;;;17.63;10.45;;;25.20;96.00;;;;;;5061376;28;20086;-88
2023/07/09 07:31:57;;;;;;;16.50;10.50;;;25.30;97.00;;;;;;5062131;28;20044;-88
2023/07/09 07:34:22;;;;;;;13.65;9.82;;;25.40;96.50;;;;;;5060491;28;20572;-88
2023/07/09 07:36:50;;;;;;;17.27;9.73;;;25.50;96.00;;;;;;5057261;28;20037;-88
2023/07/09 07:39:15;;;;;;;17.70;9.45;;;25.60;97.50;;;;;;5052534;28;20033;-88
2023/07/09 07:41:41;;;;;;;14.68;8.82;;;25.70;98.20;;;;;;5051512;28;20036;-88
2023/07/09 07:44:07;;;;;;;13.13;9.20;;;25.80;98.20;;;;;;5051484;28;20040;-89
2023/07/09 07:46:34;;;;;;;16.15;10.00;;;25.80;95.80;;;;;;5051591;28;20568;-89
2023/07/09 07:49:00;;;;;;;12.93;8.90;;;25.90;95.80;;;;;;5050878;28;20384;-89
2023/07/09 07:51:25;;;;;;;15.13;8.60;;;26.00;95.20;;;;;;5051308;28;20052;-89
2023/07/09 07:53:52;;;;;;;12.63;9.15;;;26.10;96.20;;;;;;5049991;28;20037;-89
2023/07/09 07:56:18;;;;;;;12.65;9.30;;;26.20;94.30;;;;;;5051904;28;20083;-89
2023/07/09 07:58:44;;;;;;;13.65;9.30;;;26.20;93.50;;;;;;5050964;28;20080;-89
2023/07/09 08:01:09;;;;;;;12.00;8.30;;;26.30;92.80;;;;;;5051848;28;20410;-89
2023/07/09 08:03:35;;;;;;;13.10;9.05;;;26.40;93.50;;;;;;5052414;28;20112;-90
2023/07/09 08:06:01;;;;;;;14.02;9.23;;;26.50;93.00;;;;;;5052460;28;20112;-89
2023/07/09 08:08:26;;;;;;;12.80;9.30;;;26.60;93.20;;;;;;5052312;28;20086;-89
2023/07/09 08:10:59;;;;;;;13.82;8.73;;;26.70;93.20;;;;;;5051706;28;20376;-89
2023/07/09 08:13:24;;;;;;;11.52;7.53;;;26.80;92.20;;;;;;5052356;28;20510;-89
2023/07/09 08:15:50;;;;;;;14.10;8.52;;;26.80;92.10;;;;;;5052546;28;20075;-89
2023/07/09 08:18:16;;;;;;;13.30;8.38;;;26.90;92.80;;;;;;5050988;28;20456;-89
2023/07/09 08:20:45;;;;;;;13.70;8.55;;;27.00;92.10;;;;;;5051519;28;20076;-89
2023/07/09 08:23:10;;;;;;;14.00;8.23;;;27.00;91.50;;;;;;5051886;28;20040;-89
2023/07/09 08:25:36;;;;;;;13.05;7.95;;;27.10;91.20;;;;;;5051806;28;20116;-89
2023/07/09 08:28:02;;;;;;;12.35;7.65;;;27.20;90.10;;;;;;5052446;28;20037;-89
2023/07/09 08:30:27;;;;;;;16.02;9.55;;;27.20;90.20;;;;;;5051155;28;20462;-89
2023/07/09 08:32:54;;;;;;;13.63;8.20;;;27.30;89.50;;;;;;5052078;28;20037;-89
2023/07/09 08:35:20;;;;;;;14.27;8.18;;;27.40;89.50;;;;;;5051901;28;20530;-89
2023/07/09 08:37:46;;;;;;;14.00;7.57;;;27.50;89.00;;;;;;5050737;28;20041;-89
2023/07/09 08:40:16;;;;;;;13.15;7.65;;;27.60;86.70;;;;;;5049770;28;20055;-89
2023/07/09 08:42:49;;;;;;;11.55;7.43;;;27.60;86.60;;;;;;5051835;28;20037;-89
2023/07/09 08:45:32;;;;;;;14.02;8.07;;;27.70;85.40;;;;;;5051943;28;20036;-89
2023/07/09 08:48:12;;;;;;;14.93;7.43;;;27.70;85.20;;;;;;5051777;28;20043;-88
2023/07/09 08:50:50;;;;;;;16.75;7.45;;;27.80;83.10;;;;;;5050966;28;20074;-89
2023/07/09 08:53:33;;;;;;;23.65;8.18;;;27.90;83.50;;;;;;5051594;28;20118;-89
2023/07/09 08:55:59;;;;;;;;;;;27.90;85.10;;;;;;5052338;28;20422;-89
2023/07/09 08:58:31;;;;;;;12.18;8.23;;;28.00;84.80;;;;;;5051770;28;20447;-89
2023/07/09 09:01:03;;;;;;;13.23;7.32;;;28.10;84.40;;;;;;5050763;28;20053;-89
2023/07/09 09:03:47;;;;;;;11.55;7.55;;;28.10;84.80;;;;;;5050529;28;20040;-89
2023/07/09 09:06:19;;;;;;;12.35;7.25;;;28.20;86.20;;;;;;5051766;28;20045;-89
2023/07/09 09:08:44;;;;;;;11.98;7.55;;;28.30;86.20;;;;;;5051557;28;20045;-89
2023/07/09 09:11:21;;;;;;;13.32;7.65;;;28.50;86.90;;;;;;5050905;28;20051;-89
2023/07/09 09:13:51;;;;;;;11.68;7.18;;;28.60;86.80;;;;;;5051519;28;20045;-89
2023/07/09 09:16:30;;;;;;;13.80;8.70;;;28.70;86.90;;;;;;5051804;28;20052;-89
2023/07/09 09:18:59;;;;;;;13.77;7.20;;;28.80;87.30;;;;;;5058457;28;20037;-89
2023/07/09 09:21:36;;;;;;;11.40;6.72;;;28.90;83.60;;;;;;5067012;28;20394;-90
2023/07/09 09:24:26;;;;;;;11.77;6.95;;;28.90;84.00;;;;;;5062829;28;20025;-90
2023/07/09 09:26:54;;;;;;;13.10;7.57;;;29.00;82.20;;;;;;5062200;28;20029;-90
2023/07/09 09:29:20;;;;;;;11.70;6.97;;;29.10;81.10;;;;;;5061942;28;20040;-90
2023/07/09 09:31:54;;;;;;;10.10;6.32;;;29.20;82.70;;;;;;5059383;28;20044;-90
2023/07/09 09:34:24;;;;;;;12.15;6.03;;;29.30;80.70;;;;;;5060124;28;20044;-89
2023/07/09 09:36:50;;;;;;;14.70;6.47;;;29.30;78.30;;;;;;5056044;28;20044;-89
2023/07/09 09:39:17;;;;;;;12.38;6.13;;;29.40;78.70;;;;;;5051444;28;20037;-89
2023/07/09 09:41:45;;;;;;;10.88;6.10;;;29.50;78.90;;;;;;5050567;28;20037;-90
2023/07/09 09:44:27;;;;;;;10.43;6.13;;;29.50;78.60;;;;;;5050906;28;20049;-89
2023/07/09 09:46:56;;;;;;;17.40;6.43;;;29.70;79.00;;;;;;5050952;28;20051;-90
2023/07/09 09:49:22;;;;;;;12.88;5.90;;;29.70;77.80;;;;;;5049548;28;20128;-90
2023/07/09 09:51:48;;;;;;;9.93;5.65;;;29.80;76.30;;;;;;5050347;28;20119;-90
2023/07/09 09:54:19;;;;;;;9.40;5.38;;;29.90;76.20;;;;;;5050969;28;20115;-89
2023/07/09 09:56:45;;;;;;;10.43;5.90;;;29.90;74.80;;;;;;5049994;28;20121;-90
2023/07/09 09:59:24;;;;;;;11.20;5.60;;;30.00;74.60;;;;;;5050926;28;20045;-90
2023/07/09 10:02:01;;;;;;;9.48;4.95;;;30.10;73.60;;;;;;5050354;28;20442;-90
2023/07/09 10:04:27;;;;;;;11.30;6.05;;;30.20;73.20;;;;;;5051004;28;20126;-89
2023/07/09 10:07:01;;;;;;;10.50;5.70;;;30.30;72.80;;;;;;5050749;28;20037;-90
2023/07/09 10:09:49;;;;;;;10.57;5.93;;;30.30;72.20;;;;;;5049573;28;20098;-90
2023/07/09 10:12:36;;;;;;;10.60;5.93;;;30.40;72.50;;;;;;5050488;28;20132;-90
2023/07/09 10:15:20;;;;;;;10.23;6.38;;;30.50;72.90;;;;;;5050906;28;20045;-89
2023/07/09 10:18:12;;;;;;;10.90;6.25;;;30.50;72.90;;;;;;5052986;28;20068;-90
2023/07/09 10:20:44;;;;;;;11.10;5.93;;;30.60;71.60;;;;;;5053772;28;20041;-90
2023/07/09 10:23:19;;;;;;;15.43;6.50;;;30.70;71.90;;;;;;5054152;28;20045;-89
2023/07/09 10:26:01;;;;;;;11.55;6.68;;;30.80;71.70;;;;;;5053002;28;20041;-90
2023/07/09 10:28:57;;;;;;;11.15;6.15;;;30.90;71.40;;;;;;5054126;28;20048;-90
2023/07/09 10:31:50;;;;;;;11.82;5.97;;;30.90;71.40;;;;;;5053902;28;20075;-90
2023/07/09 10:34:38;;;;;;;10.07;6.28;;;31.00;70.80;;;;;;5053013;28;20052;-90
2023/07/09 10:37:21;;;;;;;9.32;6.15;;;31.10;70.70;;;;;;5054385;28;20037;-90
2023/07/09 10:39:57;;;;;;;11.85;6.18;;;31.10;69.50;;;;;;5052172;28;20053;-90
2023/07/09 10:42:24;;;;;;;12.30;6.47;;;31.20;69.70;;;;;;5054090;28;20506;-90
2023/07/09 10:44:59;;;;;;;11.77;5.40;;;31.30;68.60;;;;;;5052729;28;20498;-90
2023/07/09 10:47:42;;;;;;;10.05;6.07;;;31.40;69.90;;;;;;5052781;28;20049;-90
2023/07/09 10:50:15;;;;;;;11.93;5.70;;;31.50;70.20;;;;;;5053054;28;20048;-91
2023/07/09 10:52:46;;;;;;;12.10;6.00;;;31.60;69.10;;;;;;5053882;28;20100;-91
2023/07/09 10:55:26;;;;;;;10.45;5.80;;;31.70;69.10;;;;;;5052543;28;20049;-91
2023/07/09 10:57:58;;;;;;;10.18;5.90;;;31.80;68.90;;;;;;5053855;28;20529;-91
2023/07/09 11:00:38;;;;;;;14.32;6.07;;;31.90;69.10;;;;;;5053097;28;20143;-91
2023/07/09 11:03:25;;;;;;;9.50;5.18;;;32.00;68.20;;;;;;5052373;28;20098;-91
2023/07/09 11:05:51;;;;;;;11.75;5.50;;;32.10;68.30;;;;;;5053055;28;20556;-91
2023/07/09 11:08:38;;;;;;;11.52;5.35;;;32.20;67.70;;;;;;5053791;28;20052;-91
2023/07/09 11:11:10;;;;;;;10.13;5.20;;;32.30;68.20;;;;;;5052814;28;20475;-90
2023/07/09 11:13:43;;;;;;;10.20;5.43;;;32.40;66.90;;;;;;5053557;28;20071;-91
2023/07/09 11:16:14;;;;;;;8.90;4.50;;;32.50;66.30;;;;;;5053647;28;20069;-90
2023/07/09 11:18:40;;;;;;;11.68;5.10;;;32.50;66.50;;;;;;5053286;28;20071;-90
2023/07/09 11:21:16;;;;;;;9.07;5.07;;;32.60;66.00;;;;;;5052544;28;20037;-91
2023/07/09 11:23:54;;;;;;;11.80;5.25;;;32.70;64.90;;;;;;5053141;28;20049;-91
2023/07/09 11:26:34;;;;;;;17.58;5.20;;;32.80;63.80;;;;;;5052402;28;20040;-91
2023/07/09 11:29:05;;;;;;;9.88;5.07;;;32.70;62.90;;;;;;5052983;28;20045;-91
2023/07/09 11:31:44;;;;;;;19.27;5.65;;;32.80;63.50;;;;;;5053753;28;20040;-91
2023/07/09 11:34:17;;;;;;;11.77;5.38;;;32.70;61.70;;;;;;5053569;28;20051;-90
2023/07/09 11:36:49;;;;;;;11.98;5.22;;;32.80;62.20;;;;;;5053248;28;20044;-90
2023/07/09 11:39:21;;;;;;;10.63;4.90;;;32.80;61.80;;;;;;5053280;28;20041;-91
2023/07/09 11:41:47;;;;;;;11.10;5.35;;;32.80;62.70;;;;;;5052927;28;20041;-91
2023/07/09 11:44:18;;;;;;;10.45;5.10;;;32.80;62.60;;;;;;5067008;28;20035;-91
2023/07/09 11:47:03;;;;;;;9.48;5.05;;;33.00;62.60;;;;;;5066886;28;20040;-91
2023/07/09 11:49:58;;;;;;;10.60;5.25;;;33.00;62.10;;;;;;5052436;28;20049;-89
2023/07/09 11:52:40;;;;;;;10.32;5.35;;;33.10;61.00;;;;;;5051383;28;20503;-91
2023/07/09 11:55:27;;;;;;;9.43;5.20;;;33.10;61.10;;;;;;5052657;28;20051;-91
2023/07/09 11:57:59;;;;;;;10.98;5.30;;;33.20;60.60;;;;;;5052854;28;20098;-91
2023/07/09 12:00:28;;;;;;;10.48;5.18;;;33.30;60.70;;;;;;5051879;28;20494;-91
2023/07/09 12:02:54;;;;;;;10.68;5.18;;;33.40;60.60;;;;;;5052402;28;20154;-91
2023/07/09 12:05:25;;;;;;;10.82;5.10;;;33.50;60.70;;;;;;5052698;28;20076;-91
2023/07/09 12:07:51;;;;;;;12.57;5.13;;;33.60;60.60;;;;;;5052331;28;20048;-91
2023/07/09 12:10:24;;;;;;;10.60;4.82;;;33.70;59.90;;;;;;5050677;28;20036;-91
2023/07/09 12:12:54;;;;;;;10.32;5.25;;;33.80;59.90;;;;;;5065981;28;20055;-91
2023/07/09 12:15:23;;;;;;;16.35;5.68;;;33.90;61.10;;;;;;5070967;28;20111;-91
2023/07/09 12:17:57;;;;;;;10.05;5.32;;;33.90;60.50;;;;;;5070846;28;20051;-91
2023/07/09 12:20:23;;;;;;;9.45;4.60;;;34.00;60.00;;;;;;5070005;28;20040;-90
2023/07/09 12:22:49;;;;;;;9.10;4.15;;;34.10;60.50;;;;;;5072271;28;20521;-90
2023/07/09 12:25:27;;;;;;;10.18;4.40;;;34.30;60.70;;;;;;5071395;28;20108;-91
2023/07/09 12:27:53;;;;;;;9.10;4.53;;;34.40;60.50;;;;;;5072081;28;20064;-92
2023/07/09 12:30:19;;;;;;;18.33;5.00;;;34.50;58.70;;;;;;5071005;28;20043;-91
2023/07/09 12:32:52;;;;;;;10.15;4.50;;;34.50;56.80;;;;;;5070911;28;20514;-92
2023/07/09 12:35:18;;;;;;;9.80;4.43;;;34.50;55.90;;;;;;5064370;28;20103;-91
2023/07/09 12:37:46;;;;;;;12.05;4.60;;;34.50;56.20;;;;;;5061036;28;20045;-92
2023/07/09 12:40:13;;;;;;;8.52;4.15;;;34.60;57.50;;;;;;5058976;28;20524;-91
2023/07/09 12:42:39;;;;;;;10.48;4.75;;;34.60;57.20;;;;;;5060072;28;20790;-92
2023/07/09 12:45:05;;;;;;;10.88;4.55;;;34.70;56.40;;;;;;5059352;28;20029;-91
2023/07/09 12:47:31;;;;;;;16.63;4.82;;;34.80;56.30;;;;;;5061066;28;20409;-91